Time;durP1;ratioP1;P1;durP2;ratioP2;P2;SDS_P1;SDS_P2;PMS_P1;PMS_P2;Temp;Humidity;BMP_temperature;BMP_pressure;BME280_temperature;BME280_humidity;BME280_pressure;Samples;Min_cycle;Max_cycle;Signal;HPM_P1;HPM_P2
2022/12/27 00:01:09;;;;;;;14.00;2.40;;;;;;;3.19;100.00;101665.00;4960128;28;20188;-72
2022/12/27 00:03:34;;;;;;;9.77;2.13;;;;;;;3.14;100.00;101656.25;4967360;28;20193;-72
2022/12/27 00:06:05;;;;;;;12.03;2.97;;;;;;;3.23;100.00;101659.34;4967985;28;20185;-72
2022/12/27 00:08:31;;;;;;;10.60;2.20;;;;;;;3.27;100.00;101648.63;4965835;28;20701;-72
2022/12/27 00:10:56;;;;;;;8.37;3.50;;;;;;;3.24;100.00;101657.69;4970952;28;20238;-72
2022/12/27 00:13:22;;;;;;;10.03;2.20;;;;;;;3.22;100.00;101657.56;4967537;28;20283;-72
2022/12/27 00:15:48;;;;;;;10.37;2.33;;;;;;;3.22;100.00;101657.56;4970811;28;20608;-72
2022/12/27 00:18:13;;;;;;;15.47;2.70;;;;;;;3.24;100.00;101655.16;4972195;28;20205;-72
2022/12/27 00:20:39;;;;;;;9.43;2.47;;;;;;;3.22;100.00;101662.63;4970425;28;20268;-71
2022/12/27 00:23:05;;;;;;;10.67;3.03;;;;;;;3.23;100.00;101666.06;4971947;28;20251;-71
2022/12/27 00:25:31;;;;;;;14.77;2.50;;;;;;;3.23;100.00;101661.00;4971848;28;20195;-72
2022/12/27 00:27:56;;;;;;;6.73;1.90;;;;;;;3.19;100.00;101667.53;4968830;28;20193;-71
2022/12/27 00:30:21;;;;;;;8.90;2.47;;;;;;;3.20;100.00;101666.75;4944351;28;20248;-71
2022/12/27 00:32:47;;;;;;;10.57;2.47;;;;;;;3.24;100.00;101665.28;4948131;28;20206;-71
2022/12/27 00:35:12;;;;;;;12.60;2.43;;;;;;;3.22;100.00;101669.38;4966623;28;20215;-71
2022/12/27 00:37:38;;;;;;;9.00;2.07;;;;;;;3.20;100.00;101684.47;4949170;28;20255;-71
2022/12/27 00:40:04;;;;;;;11.43;2.50;;;;;;;3.25;100.00;101677.13;4968268;28;20232;-72
2022/12/27 00:42:29;;;;;;;11.53;2.87;;;;;;;3.22;100.00;101672.75;4963360;28;20193;-72
2022/12/27 00:44:54;;;;;;;9.73;2.03;;;;;;;3.19;100.00;101676.75;4964814;28;20196;-72
2022/12/27 00:47:20;;;;;;;11.13;2.27;;;;;;;3.18;100.00;101675.03;4963739;28;20197;-72
2022/12/27 00:49:45;;;;;;;7.57;1.90;;;;;;;3.19;99.94;101675.13;4960610;28;20241;-72
2022/12/27 00:52:11;;;;;;;6.00;2.03;;;;;;;3.18;100.00;101675.88;4957579;28;20276;-71
2022/12/27 00:54:36;;;;;;;11.63;2.17;;;;;;;3.19;99.78;101682.72;4967221;28;20311;-72
2022/12/27 00:57:02;;;;;;;8.20;2.00;;;;;;;3.20;99.78;101676.88;4964608;28;20193;-72
2022/12/27 00:59:27;;;;;;;10.23;2.47;;;;;;;3.23;99.61;101677.06;4973815;28;20214;-71
2022/12/27 01:01:52;;;;;;;9.20;2.03;;;;;;;3.23;99.16;101672.00;4963304;28;20254;-72
2022/12/27 01:04:18;;;;;;;7.20;1.87;;;;;;;3.23;99.40;101668.59;4967185;28;20720;-72
2022/12/27 01:06:43;;;;;;;12.60;2.23;;;;;;;3.26;99.05;101683.97;4964063;28;20677;-71
2022/12/27 01:09:09;;;;;;;11.30;2.33;;;;;;;3.35;98.91;101680.31;4968745;28;20685;-72
2022/12/27 01:11:34;;;;;;;13.97;2.37;;;;;;;3.31;98.29;101675.84;4960923;28;20197;-72
2022/12/27 01:14:02;;;;;;;8.40;1.70;;;;;;;3.32;98.51;101681.81;4960283;28;20208;-72
2022/12/27 01:16:30;;;;;;;9.90;2.10;;;;;;;3.29;98.82;101684.13;4971474;28;20239;-72
2022/12/27 01:18:57;;;;;;;7.80;1.90;;;;;;;3.36;98.57;101684.59;4971869;28;20211;-72
2022/12/27 01:21:24;;;;;;;9.73;2.40;;;;;;;3.37;98.08;101685.50;4972910;28;20279;-72
2022/12/27 01:23:51;;;;;;;5.97;1.90;;;;;;;3.35;98.33;101687.91;4949413;28;20196;-72
2022/12/27 01:26:19;;;;;;;6.83;2.03;;;;;;;3.31;98.38;101688.50;4967137;28;20185;-72
2022/12/27 01:28:46;;;;;;;11.40;2.00;;;;;;;3.32;98.09;101699.50;4965743;28;20678;-72
2022/12/27 01:31:15;;;;;;;7.33;2.13;;;;;;;3.33;98.69;101699.63;4964525;28;20248;-72
2022/12/27 01:33:40;;;;;;;10.30;2.30;;;;;;;3.33;97.98;101697.09;4967601;28;20199;-72
2022/12/27 01:36:15;;;;;;;7.60;2.30;;;;;;;3.37;98.16;101706.63;4967754;28;20208;-72
2022/12/27 01:38:46;;;;;;;10.33;2.10;;;;;;;3.40;97.85;101708.47;4972709;28;20223;-72
2022/12/27 01:44:37;;;;;;;9.97;2.23;;;;;;;3.34;98.18;101708.06;4964860;28;20608;-71
2022/12/27 01:47:18;;;;;;;8.37;2.10;;;;;;;3.33;97.55;101707.22;4968283;28;20200;-72
2022/12/27 01:49:58;;;;;;;8.00;2.47;;;;;;;3.43;97.33;101708.63;4966478;28;20682;-72
2022/12/27 01:52:28;;;;;;;7.50;2.23;;;;;;;3.44;97.50;101710.38;4968799;28;20211;-72
2022/12/27 01:55:00;;;;;;;5.70;2.17;;;;;;;3.36;97.28;101707.38;4966134;28;20295;-72
2022/12/27 01:57:26;;;;;;;9.87;2.63;;;;;;;3.36;97.93;101714.97;4967433;28;20204;-72
2022/12/27 01:59:52;;;;;;;10.17;2.30;;;;;;;3.36;97.31;101716.66;4964230;28;20212;-72
2022/12/27 02:02:17;;;;;;;11.60;2.60;;;;;;;3.41;97.24;101720.31;4972640;28;20196;-72
2022/12/27 02:04:44;;;;;;;7.57;2.07;;;;;;;3.36;97.12;101726.75;4965716;28;20255;-72
2022/12/27 02:07:09;;;;;;;9.33;2.13;;;;;;;3.35;97.52;101722.50;4966792;28;20565;-72
2022/12/27 02:09:49;;;;;;;5.13;2.00;;;;;;;3.34;97.76;101723.25;4972050;28;20212;-72
2022/12/27 02:12:18;;;;;;;12.57;2.13;;;;;;;3.35;98.28;101718.28;4964051;28;20621;-72
2022/12/27 02:14:47;;;;;;;8.33;2.17;;;;;;;3.38;97.55;101732.78;4965439;28;20247;-71
2022/12/27 02:17:16;;;;;;;9.50;2.07;;;;;;;3.54;97.46;101735.50;4970755;28;20203;-71
2022/12/27 02:19:41;;;;;;;11.37;2.33;;;;;;;3.60;97.55;101743.44;4975824;28;20297;-71
2022/12/27 02:22:19;;;;;;;11.10;2.30;;;;;;;3.58;97.76;101730.69;4973212;28;20197;-72
2022/12/27 02:25:07;;;;;;;10.37;2.43;;;;;;;3.66;97.44;101741.28;4965512;28;20227;-71
2022/12/27 02:27:48;;;;;;;5.93;2.20;;;;;;;3.63;97.26;101738.59;4973872;28;20220;-72
2022/12/27 02:30:14;;;;;;;11.33;2.47;;;;;;;3.60;97.13;101738.38;4955788;28;20244;-72
2022/12/27 02:32:47;;;;;;;9.23;2.20;;;;;;;3.57;96.98;101741.59;4968632;28;20212;-71
2022/12/27 02:35:20;;;;;;;4.53;2.13;;;;;;;3.53;97.04;101747.25;4964589;28;20212;-72
2022/12/27 02:37:49;;;;;;;9.67;2.30;;;;;;;3.50;97.35;101743.69;4971991;28;20193;-71
2022/12/27 02:54:36;;;;;;;9.23;2.60;;;;;;;3.53;97.31;101738.78;4973636;28;20283;-71
2022/12/27 02:57:11;;;;;;;10.07;2.80;;;;;;;3.53;97.23;101739.66;4969164;28;20204;-72
2022/12/27 03:03:19;;;;;;;11.43;2.50;;;;;;;3.55;97.35;101742.31;4958827;28;20213;-72
2022/12/27 03:05:42;;;;;;;10.63;2.70;;;;;;;3.53;97.45;101747.25;4963250;28;20192;-71
2022/12/27 03:08:20;;;;;;;9.17;2.50;;;;;;;3.52;97.66;101740.47;4973531;28;20195;-71
2022/12/27 03:16:54;;;;;;;7.20;3.00;;;;;;;3.56;97.04;101750.00;4970559;28;20227;-72
2022/12/27 03:25:28;;;;;;;10.50;2.70;;;;;;;3.48;97.81;101751.16;4969162;28;20289;-72
2022/12/27 03:33:41;;;;;;;12.57;3.27;;;;;;;3.51;98.03;101745.41;4966646;28;20203;-72
2022/12/27 03:39:06;;;;;;;8.73;3.20;;;;;;;3.50;97.72;101749.59;4972172;28;20227;-71
2022/12/27 03:44:24;;;;;;;10.40;2.93;;;;;;;3.56;97.40;101751.63;4973901;28;20275;-71
2022/12/27 03:46:58;;;;;;;9.20;3.00;;;;;;;3.53;98.21;101741.31;4964833;28;20673;-71
2022/12/27 03:50:02;;;;;;;8.37;2.93;;;;;;;3.55;97.77;101760.88;4966172;28;20713;-71
2022/12/27 03:52:37;;;;;;;9.93;3.07;;;;;;;3.60;97.81;101753.56;4912673;29;20202;-72
2022/12/27 03:55:03;;;;;;;12.33;3.03;;;;;;;3.59;97.61;101750.16;4965017;28;20236;-71
2022/12/27 03:57:30;;;;;;;8.67;3.33;;;;;;;3.58;98.00;101755.16;4973126;28;20188;-71
2022/12/27 03:59:56;;;;;;;17.30;4.13;;;;;;;3.58;98.23;101753.47;4970132;28;20227;-70
2022/12/27 04:02:21;;;;;;;11.13;3.50;;;;;;;3.60;97.83;101759.53;4966768;28;20587;-71
2022/12/27 04:04:48;;;;;;;12.30;4.50;;;;;;;3.67;97.53;101750.63;4971519;28;20184;-71
2022/12/27 04:07:14;;;;;;;9.00;3.63;;;;;;;3.68;97.17;101760.84;4962176;28;20204;-71
2022/12/27 04:37:02;;;;;;;13.07;4.40;;;;;;;4.03;98.12;101774.00;4957011;28;20192;-72
2022/12/27 04:39:28;;;;;;;8.97;4.40;;;;;;;4.00;98.81;101768.75;4968642;28;20720;-71
2022/12/27 04:56:05;;;;;;;11.37;4.70;;;;;;;3.90;98.39;101763.91;4963686;28;20589;-71
2022/12/27 04:58:30;;;;;;;12.23;5.03;;;;;;;3.87;98.47;101767.94;4967509;28;20216;-71
2022/12/27 05:03:46;;;;;;;11.90;5.33;;;;;;;3.94;98.02;101775.09;4973938;28;20286;-71
2022/12/27 05:06:11;;;;;;;12.03;4.90;;;;;;;3.93;97.70;101766.63;4963873;28;20193;-71
2022/12/27 05:14:09;;;;;;;15.40;5.77;;;;;;;3.95;98.17;101789.53;4954380;28;20197;-71
2022/12/27 05:16:38;;;;;;;10.23;4.93;;;;;;;3.96;98.40;101781.16;4961882;28;20269;-71
2022/12/27 05:19:05;;;;;;;13.10;5.00;;;;;;;3.92;98.18;101790.19;4964424;28;20220;-71
2022/12/27 05:21:37;;;;;;;13.30;5.47;;;;;;;3.90;98.35;101785.81;4972089;28;20188;-71
2022/12/27 05:26:47;;;;;;;12.80;6.10;;;;;;;3.94;98.94;101778.50;4969273;28;20193;-71
2022/12/27 05:29:12;;;;;;;10.57;5.50;;;;;;;3.94;99.08;101791.19;4961353;28;20205;-70
2022/12/27 05:31:37;;;;;;;12.57;5.80;;;;;;;3.93;98.75;101791.97;4964758;28;20544;-70
2022/12/27 05:34:05;;;;;;;9.27;5.97;;;;;;;3.91;98.77;101783.38;4965898;28;20208;-70
2022/12/27 05:36:31;;;;;;;10.40;5.60;;;;;;;3.94;99.26;101791.19;4963630;28;20259;-70
2022/12/27 05:38:57;;;;;;;17.93;6.50;;;;;;;3.92;99.05;101794.41;4969048;28;20216;-71
2022/12/27 05:41:22;;;;;;;11.00;5.77;;;;;;;3.92;99.32;101791.88;4973505;28;20757;-71
2022/12/27 05:43:48;;;;;;;11.40;5.93;;;;;;;3.92;99.33;101792.72;4959955;28;20192;-71
2022/12/27 05:46:20;;;;;;;16.30;6.37;;;;;;;3.91;99.36;101793.50;4971048;28;20188;-71
2022/12/27 05:48:45;;;;;;;8.23;5.83;;;;;;;3.92;99.27;101805.41;4939455;28;20720;-71
2022/12/27 05:51:16;;;;;;;14.80;6.30;;;;;;;3.92;99.21;101804.53;4966515;28;20196;-71
2022/12/27 05:53:42;;;;;;;12.50;5.67;;;;;;;3.93;99.66;101798.69;4968851;28;20246;-71
2022/12/27 05:56:12;;;;;;;11.17;5.63;;;;;;;3.93;99.24;101802.09;4959105;28;20756;-71
2022/12/27 05:58:37;;;;;;;10.07;5.77;;;;;;;3.96;99.47;101806.47;4973454;28;20319;-70
2022/12/27 06:01:11;;;;;;;15.90;6.37;;;;;;;3.98;100.00;101803.25;4963481;28;20267;-70
2022/12/27 06:03:37;;;;;;;11.07;5.70;;;;;;;4.07;99.56;101819.00;4963171;28;20666;-71
2022/12/27 06:06:04;;;;;;;13.83;5.40;;;;;;;4.10;98.92;101833.53;4962754;28;20274;-70
2022/12/27 06:08:29;;;;;;;11.13;5.23;;;;;;;4.09;99.32;101826.72;4970226;28;20223;-71
2022/12/27 06:11:06;;;;;;;14.03;5.10;;;;;;;4.07;99.34;101835.84;4964642;28;20200;-71
2022/12/27 06:13:34;;;;;;;11.60;4.87;;;;;;;4.07;99.08;101834.22;4967030;28;20188;-71
2022/12/27 06:16:01;;;;;;;10.10;5.17;;;;;;;4.04;99.04;101828.94;4965080;28;20212;-71
2022/12/27 06:18:31;;;;;;;13.50;5.37;;;;;;;4.03;99.18;101839.88;4966979;28;20230;-71
2022/12/27 06:21:05;;;;;;;14.20;4.97;;;;;;;4.01;98.70;101843.94;4966610;28;20192;-71
2022/12/27 06:23:35;;;;;;;11.13;4.60;;;;;;;3.98;98.93;101843.78;4966883;28;20597;-71
2022/12/27 06:26:05;;;;;;;11.27;4.60;;;;;;;3.94;98.95;101838.41;4967122;28;20574;-71
2022/12/27 06:28:31;;;;;;;9.37;4.57;;;;;;;3.96;99.03;101834.34;4966742;28;20813;-71
2022/12/27 06:30:58;;;;;;;8.57;4.40;;;;;;;3.94;98.90;101848.56;4976167;28;20184;-71
2022/12/27 06:33:24;;;;;;;10.13;4.43;;;;;;;3.91;99.47;101864.44;4974294;28;20189;-71
2022/12/27 06:35:49;;;;;;;11.37;5.00;;;;;;;3.90;99.04;101849.13;4973005;28;20227;-71
2022/12/27 06:38:15;;;;;;;9.37;4.83;;;;;;;3.92;98.83;101855.19;4967635;28;20188;-72
2022/12/27 06:40:40;;;;;;;12.87;6.30;;;;;;;3.92;98.82;101862.78;4966001;28;20658;-71
2022/12/27 06:43:05;;;;;;;12.47;5.03;;;;;;;3.91;98.98;101864.44;4974309;28;20185;-71
2022/12/27 06:45:31;;;;;;;10.33;4.97;;;;;;;3.95;99.10;101870.59;4974406;28;20211;-72
2022/12/27 06:47:56;;;;;;;10.80;5.03;;;;;;;4.00;99.27;101870.06;4958387;28;20201;-72
2022/12/27 06:50:22;;;;;;;12.30;5.23;;;;;;;4.01;99.03;101883.63;4982089;28;20212;-72
2022/12/27 06:52:47;;;;;;;8.90;4.93;;;;;;;4.06;99.08;101882.25;4982946;28;20637;-72
2022/12/27 06:55:13;;;;;;;9.03;5.53;;;;;;;4.10;99.14;101892.66;4985240;28;20572;-72
2022/12/27 06:57:38;;;;;;;9.83;5.07;;;;;;;4.13;99.52;101892.84;4985599;28;20339;-72
2022/12/27 07:00:05;;;;;;;11.60;5.03;;;;;;;4.17;99.38;101892.28;4972126;28;20303;-72
2022/12/27 07:02:30;;;;;;;7.87;4.80;;;;;;;4.17;99.80;101894.81;4973988;28;20267;-72
2022/12/27 07:04:55;;;;;;;8.87;5.00;;;;;;;4.17;100.00;101912.53;4974025;28;20343;-72
2022/12/27 07:07:21;;;;;;;7.80;4.93;;;;;;;4.18;100.00;101905.81;4973942;28;20623;-71
2022/12/27 07:09:46;;;;;;;10.03;5.10;;;;;;;4.19;100.00;101912.63;4972897;28;20231;-71
2022/12/27 07:12:12;;;;;;;13.47;5.30;;;;;;;4.22;100.00;101922.94;4976601;28;20192;-72
2022/12/27 07:14:37;;;;;;;11.03;5.10;;;;;;;4.22;100.00;101920.41;4970389;28;20194;-71
2022/12/27 07:17:02;;;;;;;14.60;5.57;;;;;;;4.22;100.00;101922.94;4978813;28;20747;-72
2022/12/27 07:19:28;;;;;;;12.63;5.30;;;;;;;4.25;100.00;101938.34;4974129;28;20212;-72
2022/12/27 07:21:53;;;;;;;8.17;4.57;;;;;;;4.28;100.00;101920.81;4974708;28;20650;-72
2022/12/27 07:24:19;;;;;;;14.40;4.80;;;;;;;4.29;100.00;101920.03;4983679;28;20214;-72
2022/12/27 07:26:44;;;;;;;12.13;5.60;;;;;;;4.28;100.00;101941.94;4977615;28;20269;-71
2022/12/27 07:29:10;;;;;;;12.90;5.77;;;;;;;4.28;100.00;101936.88;4954057;28;20216;-72
2022/12/27 07:31:35;;;;;;;12.97;5.43;;;;;;;4.26;100.00;101935.91;4972683;28;20242;-72
2022/12/27 07:34:02;;;;;;;11.70;5.40;;;;;;;4.28;100.00;101939.41;4975303;28;20200;-72
2022/12/27 07:36:32;;;;;;;12.37;5.37;;;;;;;4.27;100.00;101954.50;4975169;28;20212;-72
2022/12/27 07:38:57;;;;;;;11.93;6.50;;;;;;;4.28;99.70;101947.00;4974187;28;20583;-72
2022/12/27 07:41:23;;;;;;;12.73;6.20;;;;;;;4.33;99.54;101958.31;4980052;28;20223;-73
2022/12/27 07:43:49;;;;;;;9.33;5.73;;;;;;;4.34;99.61;101959.19;4972250;28;20280;-72
2022/12/27 07:46:20;;;;;;;14.43;5.50;;;;;;;4.35;99.89;101969.44;4979123;28;20185;-72
2022/12/27 07:48:46;;;;;;;13.83;6.00;;;;;;;4.36;99.51;101963.59;4964722;28;20585;-72
2022/12/27 07:51:13;;;;;;;11.80;5.40;;;;;;;4.33;98.92;101973.53;4972331;28;20877;-72
2022/12/27 07:53:39;;;;;;;11.03;6.07;;;;;;;4.38;99.17;101982.28;4972801;28;20184;-72
2022/12/27 07:56:11;;;;;;;11.73;5.47;;;;;;;4.42;98.97;101980.84;4984603;28;20219;-72
2022/12/27 07:58:42;;;;;;;12.70;5.27;;;;;;;4.44;98.71;101982.69;4975808;28;20212;-72
2022/12/27 08:01:08;;;;;;;11.43;5.33;;;;;;;4.40;98.50;101984.91;4970788;28;20238;-73
2022/12/27 08:03:34;;;;;;;9.33;5.53;;;;;;;4.41;98.26;101989.19;4964733;28;20248;-72
2022/12/27 08:06:00;;;;;;;9.93;6.47;;;;;;;4.43;98.58;101992.72;4979788;28;20196;-73
2022/12/27 08:08:31;;;;;;;8.50;5.17;;;;;;;4.39;98.36;101983.16;4975337;28;20561;-72
2022/12/27 08:10:56;;;;;;;11.80;6.07;;;;;;;4.33;98.75;101987.88;4970660;28;20200;-72
2022/12/27 08:13:22;;;;;;;8.77;5.63;;;;;;;4.32;98.54;101991.19;4970440;28;20214;-72
2022/12/27 08:15:50;;;;;;;10.80;6.03;;;;;;;4.33;98.42;101998.88;4970478;28;20204;-72
2022/12/27 08:18:16;;;;;;;10.63;6.10;;;;;;;4.36;98.24;102014.28;4960636;28;20196;-72
2022/12/27 08:20:41;;;;;;;7.80;5.43;;;;;;;4.42;97.92;102003.66;4960671;28;20536;-72
2022/12/27 08:23:07;;;;;;;12.17;5.73;;;;;;;4.39;97.78;102011.94;4974328;28;20576;-72
2022/12/27 08:25:32;;;;;;;11.53;5.53;;;;;;;4.47;97.80;102017.50;4973828;28;20542;-72
2022/12/27 08:28:06;;;;;;;13.87;6.50;;;;;;;4.43;98.00;102023.16;4978963;28;20769;-72
2022/12/27 08:30:31;;;;;;;9.83;5.40;;;;;;;4.40;98.17;102020.41;4976115;28;20571;-72
2022/12/27 08:32:57;;;;;;;10.80;5.47;;;;;;;4.38;98.40;102024.53;4969358;28;20197;-72
2022/12/27 08:35:22;;;;;;;8.90;5.17;;;;;;;4.47;97.90;102020.03;4971138;28;20583;-72
2022/12/27 08:37:48;;;;;;;10.37;4.67;;;;;;;4.50;97.50;102022.72;4972525;28;20215;-72
2022/12/27 08:40:13;;;;;;;9.63;4.10;;;;;;;4.52;97.55;102022.03;4981922;28;20203;-72
2022/12/27 08:42:39;;;;;;;9.43;4.13;;;;;;;4.50;97.33;102041.38;4974404;28;20192;-72
2022/12/27 08:45:04;;;;;;;7.23;3.50;;;;;;;4.49;97.33;102018.44;4973894;28;20209;-72
2022/12/27 08:47:30;;;;;;;9.93;3.70;;;;;;;4.54;97.27;102030.66;4971115;28;20192;-72
2022/12/27 08:49:55;;;;;;;7.83;3.63;;;;;;;4.55;97.21;102034.06;4976614;28;20219;-72
2022/12/27 08:52:21;;;;;;;9.60;3.87;;;;;;;4.52;97.64;102032.19;4969701;28;20900;-72
2022/12/27 08:54:46;;;;;;;11.47;3.53;;;;;;;4.57;96.95;102041.00;4950069;28;20280;-72
2022/12/27 08:57:12;;;;;;;10.43;3.37;;;;;;;4.64;97.05;102038.03;4972248;28;20733;-72
2022/12/27 08:59:37;;;;;;;8.23;4.40;;;;;;;4.74;96.93;102045.41;4967054;28;20219;-71
2022/12/27 09:02:03;;;;;;;8.23;4.30;;;;;;;5.07;96.47;102039.00;4976469;28;20200;-73
2022/12/27 09:04:28;;;;;;;11.97;4.53;;;;;;;4.94;96.48;102055.16;4967018;28;20246;-73
2022/12/27 09:06:54;;;;;;;8.37;5.00;;;;;;;4.84;96.79;102057.03;4978434;28;20187;-72
2022/12/27 09:09:20;;;;;;;10.33;5.53;;;;;;;4.79;97.53;102060.94;4972940;28;20219;-72
2022/12/27 09:11:45;;;;;;;12.30;6.23;;;;;;;4.83;96.89;102065.44;4968585;28;20194;-72
2022/12/27 09:14:11;;;;;;;12.30;5.67;;;;;;;4.96;96.34;102070.44;4971148;28;20192;-72
2022/12/27 09:16:37;;;;;;;7.40;5.77;;;;;;;5.18;95.92;102058.28;4975214;28;20672;-72
2022/12/27 09:19:03;;;;;;;11.83;5.60;;;;;;;5.19;95.18;102054.94;4961757;28;20236;-72
2022/12/27 09:21:31;;;;;;;11.07;5.47;;;;;;;5.18;95.28;102071.84;4966588;28;20223;-72
2022/12/27 09:23:57;;;;;;;11.27;5.10;;;;;;;5.21;94.68;102068.63;4967675;28;20200;-72
2022/12/27 09:26:29;;;;;;;9.00;5.30;;;;;;;5.13;94.59;102069.81;4966411;28;20196;-72
2022/12/27 09:28:56;;;;;;;6.93;4.70;;;;;;;5.14;94.19;102085.16;4965016;28;20768;-72
2022/12/27 09:31:23;;;;;;;12.80;4.97;;;;;;;5.25;94.55;102076.50;4971190;28;20180;-72
2022/12/27 09:33:48;;;;;;;10.10;4.63;;;;;;;5.31;93.81;102079.44;4967360;28;20280;-71
2022/12/27 09:36:17;;;;;;;11.67;4.90;;;;;;;5.34;93.63;102088.88;4965596;28;20594;-72
2022/12/27 09:38:44;;;;;;;12.73;5.07;;;;;;;5.35;94.02;102090.63;4968311;28;20208;-71
2022/12/27 09:41:24;;;;;;;12.53;4.60;;;;;;;5.39;93.49;102087.50;4968076;28;20198;-72
2022/12/27 09:43:52;;;;;;;10.77;4.53;;;;;;;5.42;93.50;102093.63;4966170;28;20223;-72
2022/12/27 09:46:32;;;;;;;9.77;4.40;;;;;;;5.61;93.07;102093.94;4969578;28;20581;-71
2022/12/27 09:48:58;;;;;;;8.00;3.93;;;;;;;5.76;92.29;102096.50;4958467;28;20223;-71
2022/12/27 09:51:32;;;;;;;9.53;4.17;;;;;;;5.78;92.24;102098.34;4970736;28;20184;-71
2022/12/27 09:54:08;;;;;;;9.40;4.27;;;;;;;6.06;90.99;102099.19;4964623;28;20189;-71
2022/12/27 09:56:34;;;;;;;11.40;4.57;;;;;;;5.74;91.65;102098.06;4973552;28;20203;-71
2022/12/27 09:59:21;;;;;;;10.70;4.20;;;;;;;6.20;90.60;102103.38;4967476;28;20217;-71
2022/12/27 10:01:47;;;;;;;12.33;3.90;;;;;;;6.21;89.35;102102.59;4968361;28;20650;-71
2022/12/27 10:04:16;;;;;;;8.23;3.80;;;;;;;6.08;89.88;102102.69;4967956;28;20184;-71
2022/12/27 10:06:47;;;;;;;13.17;4.27;;;;;;;6.09;90.11;102106.09;4971967;28;20181;-71
2022/12/27 10:09:35;;;;;;;11.33;3.73;;;;;;;6.34;89.26;102111.78;4969428;28;20246;-71
2022/12/27 10:12:24;;;;;;;7.83;3.37;;;;;;;6.74;88.22;102109.00;4966888;28;20700;-71
2022/12/27 10:14:58;;;;;;;10.17;3.87;;;;;;;6.66;87.41;102114.44;4955726;28;20196;-70
2022/12/27 10:17:26;;;;;;;9.67;3.90;;;;;;;6.67;86.88;102113.66;4970457;28;20185;-71
2022/12/27 10:20:12;;;;;;;11.37;3.60;;;;;;;6.81;86.08;102122.97;4965311;28;20499;-72
2022/12/27 10:22:52;;;;;;;7.93;3.00;;;;;;;7.03;85.05;102116.56;4967093;28;20188;-73
2022/12/27 10:25:22;;;;;;;8.70;3.13;;;;;;;7.49;84.90;102125.81;4969079;28;20208;-72
2022/12/27 10:27:52;;;;;;;9.37;3.30;;;;;;;7.72;83.54;102120.25;4973793;28;20237;-72
2022/12/27 10:30:20;;;;;;;10.77;3.57;;;;;;;7.54;83.81;102124.38;4962391;28;20567;-72
2022/12/27 10:32:46;;;;;;;8.87;3.63;;;;;;;7.88;82.45;102121.91;4967677;28;20184;-71
2022/12/27 10:35:18;;;;;;;7.93;3.03;;;;;;;10.45;74.79;102101.44;4974092;28;20220;-72
2022/12/27 10:37:45;;;;;;;8.63;3.87;;;;;;;11.60;66.07;102095.66;4968499;28;20181;-72
2022/12/27 10:40:19;;;;;;;9.77;2.53;;;;;;;11.91;63.66;102102.72;4972195;28;20262;-72
2022/12/27 10:43:15;;;;;;;10.17;3.07;;;;;;;9.81;70.20;102117.50;4976639;28;20274;-72
2022/12/27 10:45:41;;;;;;;9.57;2.80;;;;;;;8.69;75.41;102116.63;4971137;28;20679;-69
2022/12/27 10:48:22;;;;;;;6.63;2.90;;;;;;;8.39;76.99;102133.00;4968366;28;20665;-72
2022/12/27 10:51:09;;;;;;;7.73;3.40;;;;;;;8.67;76.66;102120.78;4969091;28;20581;-72
2022/12/27 10:53:51;;;;;;;8.23;2.93;;;;;;;9.09;75.77;102125.34;4966561;28;20201;-71
2022/12/27 10:56:48;;;;;;;12.47;3.47;;;;;;;8.89;74.30;102115.00;4964937;28;20278;-71
2022/12/27 10:59:16;;;;;;;10.60;3.40;;;;;;;9.29;74.09;102116.00;4936500;28;20225;-72
2022/12/27 11:01:44;;;;;;;8.63;2.73;;;;;;;9.99;71.78;102128.47;4970733;28;20199;-71
2022/12/27 11:04:12;;;;;;;8.70;2.77;;;;;;;8.83;73.73;102133.47;4979551;28;20184;-72
2022/12/27 11:06:38;;;;;;;7.40;3.13;;;;;;;9.81;71.88;102131.13;4972139;28;20195;-71
2022/12/27 11:09:22;;;;;;;7.33;2.97;;;;;;;11.72;62.89;102121.75;4967946;28;20209;-71
2022/12/27 11:11:47;;;;;;;8.70;2.83;;;;;;;10.29;70.76;102140.03;4972830;28;20280;-71
2022/12/27 11:14:17;;;;;;;10.87;3.00;;;;;;;8.96;72.73;102140.03;4971610;28;20192;-70
2022/12/27 11:16:44;;;;;;;8.13;3.07;;;;;;;9.14;72.85;102139.19;4953183;28;20251;-72
2022/12/27 11:19:22;;;;;;;9.43;3.00;;;;;;;11.75;66.83;102128.69;4971678;28;20243;-73
2022/12/27 11:21:48;;;;;;;8.43;2.77;;;;;;;13.10;57.49;102128.03;4970618;28;20180;-71
2022/12/27 11:24:15;;;;;;;8.50;3.33;;;;;;;14.37;54.91;102127.28;4975311;28;20673;-72
2022/12/27 11:26:53;;;;;;;5.73;2.40;;;;;;;13.43;55.58;102153.84;4976671;28;20642;-73
2022/12/27 11:29:23;;;;;;;13.63;3.50;;;;;;;13.81;55.63;102146.38;4972682;28;20211;-70
2022/12/27 11:31:51;;;;;;;7.83;2.60;;;;;;;14.56;53.68;102145.81;4969649;28;20181;-73
2022/12/27 11:34:30;;;;;;;9.00;2.87;;;;;;;14.19;53.18;102142.25;4968048;28;20200;-72
2022/12/27 11:37:05;;;;;;;9.07;2.80;;;;;;;13.10;56.05;102150.28;4969909;28;20343;-73
2022/12/27 11:39:43;;;;;;;10.93;3.00;;;;;;;13.11;57.41;102145.22;4966193;28;20709;-72
2022/12/27 11:42:32;;;;;;;6.17;2.53;;;;;;;13.12;57.13;102146.09;4970290;28;20184;-71
2022/12/27 11:45:12;;;;;;;9.33;3.27;;;;;;;12.31;58.42;102154.59;4936270;28;20243;-72
2022/12/27 11:48:24;;;;;;;7.00;2.90;;;;;;;12.92;57.50;102158.31;4966933;28;20275;-72
2022/12/27 11:50:50;;;;;;;6.40;2.80;;;;;;;13.38;56.84;102156.31;4945363;28;20201;-72
2022/12/27 11:53:34;;;;;;;6.47;2.40;;;;;;;12.90;56.00;102153.09;4978367;28;20204;-71
2022/12/27 11:56:09;;;;;;;8.17;2.10;;;;;;;12.75;56.96;102151.75;4977129;28;20228;-71
2022/12/27 11:59:00;;;;;;;7.20;2.63;;;;;;;12.61;56.99;102156.47;4978172;28;20214;-71
2022/12/27 12:01:41;;;;;;;7.93;3.10;;;;;;;10.98;63.54;102171.94;4952668;28;20223;-71
2022/12/27 12:04:22;;;;;;;9.33;3.00;;;;;;;13.04;57.92;102150.13;4971814;28;20243;-72
2022/12/27 12:07:15;;;;;;;6.70;2.97;;;;;;;13.51;57.68;102148.13;4969184;28;20282;-71
2022/12/27 12:10:19;;;;;;;6.43;2.60;;;;;;;14.17;53.69;102154.19;4971561;28;20298;-71
2022/12/27 12:13:15;;;;;;;6.60;2.83;;;;;;;13.54;55.26;102158.47;4970292;28;20275;-72
2022/12/27 12:16:11;;;;;;;10.80;2.67;;;;;;;13.13;56.82;102159.00;4968778;28;20674;-71
2022/12/27 12:18:52;;;;;;;8.80;2.87;;;;;;;12.88;55.80;102157.34;4974263;28;20876;-71
2022/12/27 12:21:27;;;;;;;7.60;3.30;;;;;;;13.45;55.43;102152.22;4977996;28;20224;-71
2022/12/27 12:24:01;;;;;;;8.43;3.10;;;;;;;11.94;58.87;102160.16;4971353;28;20203;-71
2022/12/27 12:26:48;;;;;;;9.97;3.00;;;;;;;13.32;56.70;102151.00;4965693;28;20188;-71
2022/12/27 12:29:20;;;;;;;7.20;3.27;;;;;;;12.09;57.27;102172.66;4973172;28;20213;-71
2022/12/27 12:31:55;;;;;;;7.83;2.83;;;;;;;12.88;57.83;102156.47;4971257;28;20207;-71
2022/12/27 12:34:50;;;;;;;7.33;2.80;;;;;;;12.14;58.66;102168.56;4971834;28;20195;-70
2022/12/27 12:37:22;;;;;;;10.73;3.50;;;;;;;9.91;66.49;102181.88;4969255;28;20201;-72
2022/12/27 12:40:12;;;;;;;8.67;3.53;;;;;;;9.62;69.01;102186.53;4967467;28;20302;-72
2022/12/27 12:42:49;;;;;;;10.57;3.93;;;;;;;9.42;69.63;102187.31;4969016;28;20580;-72
2022/12/27 12:45:21;;;;;;;8.03;3.67;;;;;;;9.16;70.21;102190.34;4975290;28;20193;-71
2022/12/27 12:47:55;;;;;;;8.83;3.40;;;;;;;9.06;69.89;102181.41;4968678;28;20231;-73
2022/12/27 12:50:58;;;;;;;12.07;3.63;;;;;;;9.09;71.29;102181.56;4979218;28;20247;-72
2022/12/27 12:53:44;;;;;;;9.73;3.80;;;;;;;9.08;70.92;102173.81;4971394;28;20187;-72
2022/12/27 12:56:42;;;;;;;9.03;3.07;;;;;;;9.20;69.42;102180.38;4976145;28;20618;-72
2022/12/27 12:59:16;;;;;;;9.63;3.03;;;;;;;8.91;70.71;102175.59;4911462;28;20327;-73
2022/12/27 13:02:06;;;;;;;10.03;2.90;;;;;;;8.78;71.69;102168.13;4969051;28;20196;-72
2022/12/27 13:04:51;;;;;;;8.63;2.80;;;;;;;8.48;72.67;102181.97;4966444;28;20728;-72
2022/12/27 13:07:41;;;;;;;15.33;3.77;;;;;;;8.59;74.20;102173.16;4954226;28;20243;-72
2022/12/27 13:10:51;;;;;;;7.97;2.67;;;;;;;8.71;72.71;102168.63;4969438;28;20208;-72
2022/12/27 13:13:41;;;;;;;11.83;3.33;;;;;;;8.74;72.19;102161.13;4947412;28;20218;-72
2022/12/27 13:16:06;;;;;;;9.03;2.40;;;;;;;8.76;73.01;102167.16;4975115;28;20215;-71
2022/12/27 13:18:44;;;;;;;9.63;2.80;;;;;;;8.48;72.85;102174.31;4970241;28;20216;-73
2022/12/27 13:21:09;;;;;;;12.73;3.30;;;;;;;8.13;73.61;102171.66;4967579;28;20184;-72